Time;durP1;ratioP1;P1;durP2;ratioP2;P2;SDS_P1;SDS_P2;PMS_P1;PMS_P2;Temp;Humidity;BMP_temperature;BMP_pressure;BME280_temperature;BME280_humidity;BME280_pressure;Samples;Min_cycle;Max_cycle;Signal;HPM_P1;HPM_P2
2021/04/19 00:01:41;;;;;;;23.47;18.97;;;;;;;11.53;59.06;98109.66;8347187;28;20212;-64
2021/04/19 00:05:43;;;;;;;22.07;17.53;;;;;;;11.50;59.86;98109.84;8327823;28;20197;-65
2021/04/19 00:09:45;;;;;;;26.20;18.53;;;;;;;11.57;59.93;98112.13;8328197;28;20221;-64
2021/04/19 00:13:47;;;;;;;23.93;18.20;;;;;;;11.54;60.74;98107.94;8328669;28;20651;-65
2021/04/19 00:17:50;;;;;;;22.83;18.10;;;;;;;11.50;60.75;98106.41;8328403;28;20223;-64
2021/04/19 00:21:53;;;;;;;21.00;16.77;;;;;;;11.50;61.01;98101.22;8328562;28;20209;-65
2021/04/19 00:25:55;;;;;;;20.70;16.83;;;;;;;11.48;61.21;98098.69;8327689;28;20196;-64
2021/04/19 00:29:57;;;;;;;25.60;18.47;;;;;;;11.40;60.62;98100.78;8328382;28;20231;-64
2021/04/19 00:34:02;;;;;;;21.77;18.60;;;;;;;11.38;60.04;98089.63;8327727;28;20212;-64
2021/04/19 00:38:04;;;;;;;23.73;18.33;;;;;;;11.38;61.04;98086.19;8327472;28;20224;-64
2021/04/19 00:42:07;;;;;;;23.40;18.23;;;;;;;11.35;60.83;98082.00;8352706;28;20211;-64
2021/04/19 00:46:09;;;;;;;24.60;20.10;;;;;;;11.27;60.58;98079.78;8360154;28;20210;-64
2021/04/19 00:50:14;;;;;;;21.93;19.43;;;;;;;11.28;60.50;98080.59;8360243;28;20548;-64
2021/04/19 00:54:16;;;;;;;23.53;19.53;;;;;;;11.27;60.63;98079.78;8360880;28;20651;-64
2021/04/19 00:58:19;;;;;;;25.83;19.40;;;;;;;11.27;61.07;98068.53;8359938;28;20215;-64
2021/04/19 01:02:20;;;;;;;23.27;18.47;;;;;;;11.31;60.85;98076.13;8360081;28;20624;-64
2021/04/19 01:06:23;;;;;;;23.43;18.67;;;;;;;11.37;60.27;98074.16;8360541;28;20191;-64
2021/04/19 01:10:25;;;;;;;25.70;20.00;;;;;;;11.20;60.83;98072.34;8360455;28;20219;-64
2021/04/19 01:14:27;;;;;;;26.77;18.57;;;;;;;11.23;60.73;98070.44;8360334;28;20234;-64
2021/04/19 01:18:29;;;;;;;23.30;19.90;;;;;;;11.18;60.98;98067.22;8366448;28;20214;-64
2021/04/19 01:22:32;;;;;;;25.00;18.93;;;;;;;11.24;60.79;98068.69;8366287;28;20196;-64
2021/04/19 01:26:34;;;;;;;23.80;18.90;;;;;;;11.29;60.37;98069.31;8366870;28;20647;-64
2021/04/19 01:30:37;;;;;;;22.90;19.10;;;;;;;11.28;60.46;98071.06;8366000;28;20243;-64
2021/04/19 01:34:39;;;;;;;23.57;18.53;;;;;;;11.26;60.76;98065.09;8366234;28;20203;-65
2021/04/19 01:38:42;;;;;;;22.43;18.73;;;;;;;11.27;60.88;98065.94;8365839;28;20235;-64
2021/04/19 01:42:45;;;;;;;22.80;17.57;;;;;;;11.23;60.85;98067.84;8365792;28;20207;-64
2021/04/19 01:46:47;;;;;;;23.67;18.60;;;;;;;11.15;61.35;98064.75;8365920;28;20558;-64
2021/04/19 01:50:50;;;;;;;22.77;19.20;;;;;;;11.12;61.29;98070.09;8365876;28;20227;-64
2021/04/19 01:54:53;;;;;;;22.77;17.80;;;;;;;11.04;61.36;98057.47;8365981;28;20596;-64
2021/04/19 01:58:56;;;;;;;22.77;18.37;;;;;;;11.01;61.19;98065.38;8365970;28;20199;-64
2021/04/19 02:03:08;;;;;;;22.50;18.37;;;;;;;10.92;61.38;98066.63;8365581;28;20588;-64
2021/04/19 02:07:15;;;;;;;21.87;18.27;;;;;;;11.00;61.33;98065.44;8365706;28;20197;-64
2021/04/19 02:11:25;;;;;;;23.43;18.83;;;;;;;10.93;61.37;98059.69;8365515;28;20555;-65
2021/04/19 02:15:33;;;;;;;23.40;19.03;;;;;;;10.90;61.48;98063.25;8365543;28;20220;-64
2021/04/19 02:19:39;;;;;;;21.63;18.00;;;;;;;10.98;61.35;98065.50;8365529;28;20192;-64
2021/04/19 02:23:46;;;;;;;24.10;18.50;;;;;;;10.95;61.47;98065.66;8365608;28;20203;-64
2021/04/19 02:27:52;;;;;;;22.30;17.73;;;;;;;11.01;61.21;98064.53;8365574;28;20207;-65
2021/04/19 02:31:56;;;;;;;22.57;19.27;;;;;;;10.98;61.68;98059.47;8365466;28;20223;-64
2021/04/19 02:35:59;;;;;;;24.17;18.13;;;;;;;11.01;61.39;98064.53;8364799;28;20286;-64
2021/04/19 02:40:03;;;;;;;23.20;19.27;;;;;;;10.97;61.36;98061.25;8364438;28;20238;-64
2021/04/19 02:44:08;;;;;;;21.70;18.10;;;;;;;11.00;61.37;98057.66;8364526;28;20199;-64
2021/04/19 02:48:11;;;;;;;23.50;18.80;;;;;;;10.95;61.63;98063.06;8364274;28;20199;-65
2021/04/19 02:52:13;;;;;;;22.77;18.93;;;;;;;10.90;61.34;98063.25;8364559;28;20220;-64
2021/04/19 02:56:15;;;;;;;22.87;18.17;;;;;;;10.95;61.48;98066.50;8363651;28;20200;-64
2021/04/19 03:00:22;;;;;;;20.17;17.17;;;;;;;10.99;61.20;98058.59;8363666;28;20203;-64
2021/04/19 03:04:33;;;;;;;22.40;18.33;;;;;;;10.92;61.55;98053.66;8363909;28;20215;-64
2021/04/19 03:08:39;;;;;;;20.30;18.10;;;;;;;10.83;61.76;98056.66;8363484;28;20210;-64
2021/04/19 03:12:45;;;;;;;21.70;18.50;;;;;;;10.84;62.08;98052.34;8363156;28;20195;-64
2021/04/19 03:16:50;;;;;;;25.60;19.30;;;;;;;10.87;61.63;98052.19;8362782;28;20231;-64
2021/04/19 03:21:04;;;;;;;20.57;18.07;;;;;;;10.85;61.65;98041.91;8363672;28;20607;-64
2021/04/19 03:25:08;;;;;;;23.63;19.43;;;;;;;10.80;62.04;98055.97;8363197;28;20207;-64
2021/04/19 03:29:10;;;;;;;21.23;18.13;;;;;;;10.80;61.79;98050.78;8362628;28;20227;-64
2021/04/19 03:33:14;;;;;;;18.77;16.83;;;;;;;10.76;61.87;98050.91;8362813;28;20222;-64
2021/04/19 03:37:17;;;;;;;22.00;18.33;;;;;;;10.69;62.30;98056.44;8362254;28;20627;-64
2021/04/19 03:41:21;;;;;;;22.13;18.53;;;;;;;10.69;62.22;98057.25;8362640;28;20208;-64
2021/04/19 03:45:24;;;;;;;21.70;17.97;;;;;;;10.76;62.00;98057.84;8362515;28;20203;-64
2021/04/19 03:49:30;;;;;;;22.60;19.43;;;;;;;10.73;62.10;98058.81;8362211;28;20223;-65
2021/04/19 03:53:33;;;;;;;27.20;19.40;;;;;;;10.75;62.02;98059.56;8362367;28;20199;-64
2021/04/19 03:57:35;;;;;;;22.63;18.97;;;;;;;10.74;62.73;98060.50;8361717;28;20191;-64
2021/04/19 04:01:38;;;;;;;22.53;18.00;;;;;;;10.75;62.27;98056.97;8362064;28;20522;-64
2021/04/19 04:05:43;;;;;;;22.23;17.57;;;;;;;10.79;62.20;98060.28;8361799;28;20195;-64
2021/04/19 04:09:46;;;;;;;24.37;19.63;;;;;;;10.65;62.50;98066.06;8361562;28;20303;-64
2021/04/19 04:13:48;;;;;;;23.37;19.37;;;;;;;10.70;62.70;98058.09;8361300;28;20253;-64
2021/04/19 04:17:49;;;;;;;23.60;19.90;;;;;;;10.81;62.25;98062.81;8361616;28;20223;-64
2021/04/19 04:21:53;;;;;;;23.80;20.23;;;;;;;10.78;62.47;98061.22;8360753;28;20203;-64
2021/04/19 04:25:55;;;;;;;20.23;17.20;;;;;;;10.85;62.05;98062.63;8361688;28;20198;-64
2021/04/19 04:29:57;;;;;;;21.07;17.87;;;;;;;10.79;61.92;98067.22;8361846;28;20270;-64
2021/04/19 04:33:59;;;;;;;21.23;18.03;;;;;;;10.84;61.81;98071.31;8361433;28;20250;-64
2021/04/19 04:38:02;;;;;;;22.50;18.63;;;;;;;10.83;62.09;98071.34;8361253;28;20223;-64
2021/04/19 04:42:05;;;;;;;22.37;18.10;;;;;;;10.89;61.99;98068.50;8360896;28;20207;-64
2021/04/19 04:46:12;;;;;;;21.50;18.07;;;;;;;10.88;61.55;98072.00;8361162;28;20507;-64
2021/04/19 04:50:18;;;;;;;25.27;18.53;;;;;;;10.80;62.08;98061.16;8362463;28;20591;-64
2021/04/19 04:54:21;;;;;;;21.40;18.20;;;;;;;10.86;61.77;98068.66;8368049;28;20200;-64
2021/04/19 04:58:23;;;;;;;26.20;18.83;;;;;;;10.81;61.58;98071.41;8367339;28;20317;-64
2021/04/19 05:02:26;;;;;;;24.03;19.40;;;;;;;10.84;61.64;98073.06;8360488;28;20204;-64
2021/04/19 05:06:28;;;;;;;22.30;17.83;;;;;;;10.79;62.35;98072.41;8362205;28;20202;-64
2021/04/19 05:10:31;;;;;;;21.17;18.23;;;;;;;10.76;62.13;98081.16;8363974;28;20250;-65
2021/04/19 05:14:34;;;;;;;20.83;17.53;;;;;;;10.74;62.16;98080.38;8364394;28;20496;-64
2021/04/19 05:18:36;;;;;;;21.40;18.37;;;;;;;10.69;62.16;98077.97;8364670;28;20318;-65
2021/04/19 05:22:40;;;;;;;23.10;19.40;;;;;;;10.67;62.34;98074.63;8364759;28;20200;-64
2021/04/19 05:26:44;;;;;;;24.13;19.90;;;;;;;10.73;62.02;98074.34;8363897;28;20306;-65
2021/04/19 05:30:49;;;;;;;25.73;20.93;;;;;;;10.66;62.03;98088.50;8360520;28;20243;-64
2021/04/19 05:34:51;;;;;;;25.80;20.90;;;;;;;10.65;62.24;98084.19;8364226;28;20230;-64
2021/04/19 05:38:53;;;;;;;24.33;19.93;;;;;;;10.69;61.66;98095.28;8366265;28;20199;-64
2021/04/19 05:42:57;;;;;;;24.60;20.53;;;;;;;10.71;61.65;98086.53;8366334;28;20642;-65
2021/04/19 05:46:59;;;;;;;24.37;21.23;;;;;;;10.69;61.87;98096.13;8366921;28;20211;-65
2021/04/19 05:51:03;;;;;;;11.10;8.30;;;;;;;12.61;63.51;98099.34;8356122;28;20215;-66
2021/04/19 05:55:07;;;;;;;19.57;15.23;;;;;;;13.36;55.90;98099.81;8345057;28;20200;-66
2021/04/19 05:59:13;;;;;;;19.27;15.67;;;;;;;13.53;54.09;98105.91;8332520;28;20225;-67
2021/04/19 06:03:20;;;;;;;21.77;18.30;;;;;;;12.72;55.15;98101.41;8348789;28;20211;-65
2021/04/19 06:07:27;;;;;;;20.90;17.77;;;;;;;12.07;57.20;98101.16;8331023;28;20200;-65
2021/04/19 06:11:34;;;;;;;22.30;18.30;;;;;;;11.79;58.57;98104.22;8331099;28;20224;-65
2021/04/19 06:15:37;;;;;;;23.00;19.10;;;;;;;11.60;58.89;98104.22;8332316;28;20743;-65
2021/04/19 06:19:43;;;;;;;23.20;19.57;;;;;;;11.44;59.42;98109.25;8331504;28;20211;-65
2021/04/19 06:23:45;;;;;;;21.37;19.10;;;;;;;11.45;59.64;98105.75;8331813;28;20184;-65
2021/04/19 06:27:48;;;;;;;23.17;19.27;;;;;;;11.40;59.91;98097.34;8330811;28;20233;-65
2021/04/19 06:31:52;;;;;;;22.10;19.40;;;;;;;11.29;60.33;98103.88;8347654;28;20315;-65
2021/04/19 06:35:54;;;;;;;23.37;19.27;;;;;;;11.34;60.27;98101.88;8346593;28;20605;-65
2021/04/19 06:39:56;;;;;;;22.30;19.47;;;;;;;11.31;60.69;98101.22;8348004;28;20199;-64
2021/04/19 06:43:58;;;;;;;21.30;18.73;;;;;;;11.26;60.82;98104.00;8347160;28;20204;-67
2021/04/19 06:48:06;;;;;;;24.23;20.17;;;;;;;11.05;61.51;98104.97;8347750;28;20200;-64
2021/04/19 06:52:08;;;;;;;24.93;20.30;;;;;;;11.17;61.15;98103.56;8348929;28;20295;-65
2021/04/19 06:56:12;;;;;;;24.83;20.17;;;;;;;11.22;61.10;98110.22;8347045;28;20199;-64
2021/04/19 07:00:15;;;;;;;27.23;20.33;;;;;;;11.33;60.85;98105.41;8347332;28;20211;-65
2021/04/19 07:04:21;;;;;;;25.10;21.50;;;;;;;11.24;61.60;98103.22;8347339;28;20195;-65
2021/04/19 07:08:27;;;;;;;26.47;21.43;;;;;;;11.37;60.43;98110.47;8337174;28;20188;-65
2021/04/19 07:12:33;;;;;;;27.77;21.83;;;;;;;11.25;60.73;98112.69;8343726;28;20216;-66
2021/04/19 07:16:35;;;;;;;24.77;21.37;;;;;;;11.03;61.66;98096.41;8346489;28;20259;-65
2021/04/19 07:20:38;;;;;;;27.87;20.90;;;;;;;11.32;60.99;98108.06;8348476;28;20644;-65
2021/04/19 07:24:40;;;;;;;24.27;21.13;;;;;;;11.51;60.51;98103.72;8356922;28;20204;-65
2021/04/19 07:28:42;;;;;;;24.63;21.03;;;;;;;11.55;60.87;98105.25;8340366;28;20229;-65
2021/04/19 07:32:44;;;;;;;26.37;22.40;;;;;;;11.42;61.29;98105.91;8331210;28;20343;-62
2021/04/19 07:36:52;;;;;;;27.70;23.53;;;;;;;11.44;61.97;98101.47;8350189;28;20202;-63
2021/04/19 07:40:54;;;;;;;29.37;24.63;;;;;;;11.60;61.22;98102.47;8347471;28;20235;-62
2021/04/19 07:44:57;;;;;;;27.73;22.17;;;;;;;11.64;61.57;98103.16;8358507;28;20250;-62
2021/04/19 07:48:59;;;;;;;27.60;23.87;;;;;;;11.37;61.71;98092.31;8362785;28;20199;-62
2021/04/19 07:53:05;;;;;;;27.03;23.23;;;;;;;11.63;61.76;98089.38;8363272;28;20654;-63
2021/04/19 07:57:08;;;;;;;30.53;24.77;;;;;;;11.74;61.02;98102.66;8362864;28;20200;-62
2021/04/19 08:01:10;;;;;;;33.43;26.70;;;;;;;11.29;63.33;98097.81;8362554;28;20208;-61
2021/04/19 08:05:12;;;;;;;30.47;24.60;;;;;;;11.46;61.14;98097.91;8362793;28;20204;-62
2021/04/19 08:09:14;;;;;;;29.40;23.07;;;;;;;11.76;60.65;98094.78;8362809;28;20797;-62
2021/04/19 08:13:18;;;;;;;31.63;25.90;;;;;;;11.23;61.53;98092.91;8362525;28;20191;-62
2021/04/19 08:17:20;;;;;;;29.93;25.20;;;;;;;11.72;61.01;98096.69;8362084;28;20216;-62
2021/04/19 08:21:26;;;;;;;30.43;24.00;;;;;;;11.92;60.53;98100.16;8358380;28;20200;-62
2021/04/19 08:25:29;;;;;;;26.67;23.20;;;;;;;11.81;61.04;98092.00;8363031;28;20200;-63
2021/04/19 08:29:42;;;;;;;26.40;22.57;;;;;;;12.11;60.07;98102.72;8330002;28;20227;-62
2021/04/19 08:33:45;;;;;;;28.07;23.63;;;;;;;12.13;60.46;98103.47;8358422;28;20200;-66
2021/04/19 08:37:49;;;;;;;24.97;22.30;;;;;;;12.10;61.02;98099.25;8362636;28;20715;-65
2021/04/19 08:41:53;;;;;;;26.97;22.10;;;;;;;12.11;60.06;98106.13;8355718;28;20197;-65
2021/04/19 08:45:55;;;;;;;26.73;22.93;;;;;;;12.16;60.34;98108.50;8329952;28;20200;-65
2021/04/19 08:49:59;;;;;;;25.70;21.50;;;;;;;12.23;59.82;98119.44;8330267;28;20224;-65
2021/04/19 08:54:01;;;;;;;26.57;23.67;;;;;;;12.17;60.41;98115.38;8330352;28;20515;-65
2021/04/19 08:58:09;;;;;;;24.30;21.57;;;;;;;12.31;59.61;98123.31;8330661;28;20208;-65
2021/04/19 09:02:12;;;;;;;25.10;21.93;;;;;;;12.32;59.09;98119.81;8329484;28;20196;-64
2021/04/19 09:06:15;;;;;;;27.07;21.13;;;;;;;12.39;59.26;98119.53;8329488;28;20487;-64
2021/04/19 09:10:19;;;;;;;23.97;20.00;;;;;;;12.39;58.44;98120.34;8329429;28;20647;-65
2021/04/19 09:14:33;;;;;;;26.70;20.53;;;;;;;12.46;58.58;98121.75;8329522;28;20207;-62
2021/04/19 09:18:36;;;;;;;27.07;21.67;;;;;;;12.48;59.09;98127.69;8331082;28;20193;-63
2021/04/19 09:22:38;;;;;;;28.13;22.60;;;;;;;12.13;59.92;98130.25;8362839;28;20207;-63
2021/04/19 09:26:49;;;;;;;26.00;23.30;;;;;;;12.06;60.35;98128.88;8362407;28;20615;-62
2021/04/19 09:30:52;;;;;;;32.33;25.50;;;;;;;11.90;61.22;98127.94;8363190;28;20608;-63
2021/04/19 09:34:57;;;;;;;28.20;23.83;;;;;;;11.66;62.02;98135.06;8353586;28;20259;-63
2021/04/19 09:38:59;;;;;;;27.47;24.47;;;;;;;11.78;61.59;98125.88;8350305;28;20262;-63
2021/04/19 09:43:04;;;;;;;30.53;25.13;;;;;;;11.58;61.99;98132.81;8346383;28;20710;-64
2021/04/19 09:47:07;;;;;;;27.13;24.00;;;;;;;11.88;61.02;98124.50;8358244;28;20523;-63
2021/04/19 09:51:13;;;;;;;25.40;22.43;;;;;;;12.36;59.63;98130.06;8336679;28;20675;-63
2021/04/19 09:55:16;;;;;;;26.70;23.13;;;;;;;12.47;58.59;98112.19;8334660;28;20246;-63
2021/04/19 09:59:20;;;;;;;28.40;24.70;;;;;;;12.19;59.03;98123.94;8334922;28;20196;-63
2021/04/19 10:03:23;;;;;;;24.97;22.30;;;;;;;12.75;58.63;98111.63;8334039;28;20593;-63
2021/04/19 10:07:25;;;;;;;26.83;23.50;;;;;;;12.75;59.36;98111.63;8334505;28;20227;-66
2021/04/19 10:11:29;;;;;;;27.43;24.47;;;;;;;13.04;58.33;98104.97;8333721;28;20220;-65
2021/04/19 10:15:31;;;;;;;20.30;18.20;;;;;;;13.24;56.86;98109.09;8345101;28;20216;-65
2021/04/19 10:19:34;;;;;;;19.10;17.03;;;;;;;13.38;56.16;98105.78;8366082;28;20207;-65
2021/04/19 10:23:39;;;;;;;18.93;16.93;;;;;;;13.56;56.38;98100.53;8343753;28;20207;-64
2021/04/19 10:27:41;;;;;;;20.43;18.23;;;;;;;13.59;55.86;98102.97;8333329;28;20645;-65
2021/04/19 10:31:48;;;;;;;18.63;16.73;;;;;;;13.77;56.21;98106.34;8333061;28;20228;-64
2021/04/19 10:35:51;;;;;;;19.80;17.80;;;;;;;13.70;55.94;98103.22;8332804;28;20188;-64
2021/04/19 10:39:53;;;;;;;15.10;13.50;;;;;;;14.00;53.32;98098.06;8333397;28;20219;-64
2021/04/19 10:43:55;;;;;;;16.50;14.90;;;;;;;14.29;52.92;98098.19;8333392;28;20648;-65
2021/04/19 10:48:15;;;;;;;16.93;14.97;;;;;;;14.50;52.23;98100.47;8333338;28;20200;-65
2021/04/19 10:52:17;;;;;;;15.30;11.43;;;;;;;14.74;50.89;98096.47;8356372;28;20223;-64
2021/04/19 10:56:24;;;;;;;14.37;12.63;;;;;;;14.86;50.01;98081.84;8334141;28;20196;-64
2021/04/19 11:00:26;;;;;;;15.67;14.03;;;;;;;14.64;51.46;98088.34;8333234;28;20569;-64
2021/04/19 11:04:28;;;;;;;18.17;14.40;;;;;;;15.48;50.15;98083.31;8332997;28;20200;-65
2021/04/19 11:08:50;;;;;;;13.73;12.40;;;;;;;16.17;47.68;98087.63;8332750;28;20573;-65
2021/04/19 11:13:00;;;;;;;13.80;11.47;;;;;;;16.00;46.34;98086.09;8331530;28;20235;-63
2021/04/19 11:17:04;;;;;;;14.53;12.53;;;;;;;16.05;46.43;98072.75;8331713;28;20287;-65
2021/04/19 11:21:06;;;;;;;13.60;12.30;;;;;;;15.71;48.21;98068.84;8338892;28;20203;-64
2021/04/19 11:25:14;;;;;;;15.63;13.80;;;;;;;15.70;48.06;98069.75;8364148;28;20203;-65
2021/04/19 11:29:34;;;;;;;15.23;13.70;;;;;;;16.16;46.39;98070.28;8362569;28;20425;-64
2021/04/19 11:33:36;;;;;;;14.33;12.83;;;;;;;15.97;48.09;98069.78;8364701;28;20515;-64
2021/04/19 11:37:39;;;;;;;14.37;12.87;;;;;;;15.38;48.60;98059.56;8363291;28;20200;-65
2021/04/19 11:41:43;;;;;;;14.73;13.33;;;;;;;15.15;49.64;98063.59;8363861;28;20621;-65
2021/04/19 11:45:45;;;;;;;14.10;12.50;;;;;;;14.52;52.49;98065.56;8363976;28;20207;-64
2021/04/19 11:49:52;;;;;;;23.43;15.50;;;;;;;14.31;55.06;98069.44;8363218;28;20501;-64
2021/04/19 11:53:53;;;;;;;16.47;14.13;;;;;;;13.68;54.47;98069.47;8362629;28;20207;-65
2021/04/19 11:57:56;;;;;;;20.03;17.80;;;;;;;13.79;57.68;98062.84;8363002;28;20203;-65
2021/04/19 12:02:01;;;;;;;21.80;17.93;;;;;;;13.72;58.14;98075.34;8357150;28;20203;-65
2021/04/19 12:06:04;;;;;;;20.07;17.97;;;;;;;13.79;58.34;98073.25;8335179;28;20208;-65
2021/04/19 12:10:07;;;;;;;21.83;19.30;;;;;;;13.53;59.73;98078.09;8329849;28;20286;-64
2021/04/19 12:14:10;;;;;;;24.23;20.30;;;;;;;13.91;59.35;98074.31;8329845;28;20197;-64
2021/04/19 12:18:12;;;;;;;24.57;19.70;;;;;;;13.93;59.39;98078.50;8329425;28;20207;-65
2021/04/19 12:22:14;;;;;;;24.00;19.47;;;;;;;13.97;58.77;98076.56;8328703;28;20196;-65
2021/04/19 12:26:16;;;;;;;20.03;17.93;;;;;;;14.08;58.80;98066.38;8328374;28;20196;-65
2021/04/19 12:30:31;;;;;;;20.20;17.93;;;;;;;14.08;59.76;98066.38;8328625;28;20236;-65
2021/04/19 12:34:33;;;;;;;20.73;16.53;;;;;;;14.22;56.51;98066.44;8328606;28;20196;-65
2021/04/19 12:38:35;;;;;;;17.33;14.97;;;;;;;14.40;56.55;98063.69;8328132;28;20201;-64
2021/04/19 12:42:38;;;;;;;17.17;15.33;;;;;;;14.59;55.75;98061.72;8328560;28;20527;-64
2021/04/19 12:46:41;;;;;;;14.63;13.13;;;;;;;15.32;54.35;98059.97;8328217;28;20559;-64
2021/04/19 12:50:43;;;;;;;16.33;14.63;;;;;;;16.04;53.10;98063.25;8348843;28;20260;-62
2021/04/19 12:54:45;;;;;;;16.33;14.63;;;;;;;16.48;50.69;98045.56;8361267;28;20203;-61
2021/04/19 12:58:59;;;;;;;16.17;14.47;;;;;;;16.56;49.98;98038.88;8361151;28;20196;-63
2021/04/19 13:03:01;;;;;;;15.33;13.83;;;;;;;16.21;50.80;98038.63;8361458;28;20573;-62
2021/04/19 13:07:03;;;;;;;11.73;10.40;;;;;;;15.74;49.61;98034.72;8361687;28;20196;-62
2021/04/19 13:11:05;;;;;;;12.40;11.23;;;;;;;15.55;49.53;98040.25;8362426;28;20235;-63
2021/04/19 13:15:09;;;;;;;11.93;10.73;;;;;;;15.27;48.79;98044.59;8367926;28;20228;-65
2021/04/19 13:19:12;;;;;;;13.63;12.23;;;;;;;16.41;49.07;98037.28;8368188;28;20199;-64
2021/04/19 13:23:14;;;;;;;12.73;11.43;;;;;;;16.84;48.19;98042.25;8368400;28;20207;-64
2021/04/19 13:27:16;;;;;;;14.73;13.13;;;;;;;17.24;47.32;98034.25;8368598;28;20545;-64
2021/04/19 13:31:17;;;;;;;14.10;12.67;;;;;;;17.35;44.48;98031.72;8367657;28;20232;-65
2021/04/19 13:35:21;;;;;;;11.77;10.63;;;;;;;17.27;43.13;98031.44;8364731;28;20562;-65
2021/04/19 13:39:23;;;;;;;11.87;10.77;;;;;;;16.86;43.81;98023.84;8346581;28;20200;-65
2021/04/19 13:43:25;;;;;;;12.80;11.50;;;;;;;16.75;46.01;98032.38;8365396;28;20199;-66
2021/04/19 13:47:27;;;;;;;13.13;11.83;;;;;;;16.71;44.98;98023.91;8333883;28;20200;-64
2021/04/19 13:51:30;;;;;;;22.70;12.93;;;;;;;16.80;45.13;98014.59;8336056;28;20220;-65
2021/04/19 13:55:32;;;;;;;15.23;12.37;;;;;;;16.76;47.06;98023.63;8362462;28;20267;-65
2021/04/19 13:59:34;;;;;;;16.57;13.80;;;;;;;16.83;44.86;98013.59;8367023;28;20199;-65
2021/04/19 14:03:36;;;;;;;13.87;12.37;;;;;;;16.52;47.05;98008.63;8365818;28;20312;-65
2021/04/19 14:07:39;;;;;;;13.73;12.33;;;;;;;16.26;46.19;98006.94;8362886;28;20208;-65
2021/04/19 14:11:41;;;;;;;15.23;13.43;;;;;;;16.02;46.92;97997.19;8352454;28;20273;-65
2021/04/19 14:15:44;;;;;;;15.70;13.70;;;;;;;16.00;46.87;97996.47;8365679;28;20226;-65
2021/04/19 14:19:46;;;;;;;14.07;12.67;;;;;;;16.54;45.19;97991.06;8366694;28;20206;-64
2021/04/19 14:23:49;;;;;;;13.70;12.37;;;;;;;16.65;43.33;97986.91;8366659;28;20693;-64
2021/04/19 14:27:51;;;;;;;13.40;11.97;;;;;;;17.12;44.47;97988.84;8367154;28;20207;-65
2021/04/19 14:31:53;;;;;;;14.33;12.93;;;;;;;17.56;44.12;97978.75;8358739;28;20666;-69
2021/04/19 14:35:57;;;;;;;14.20;12.70;;;;;;;17.77;41.91;97984.22;8358974;28;20279;-64
2021/04/19 14:40:00;;;;;;;16.23;13.50;;;;;;;17.25;40.78;97985.34;8364987;28;20211;-63
2021/04/19 14:44:02;;;;;;;13.70;12.10;;;;;;;16.98;42.62;97981.13;8366408;28;20199;-63
2021/04/19 14:48:05;;;;;;;19.47;16.27;;;;;;;16.55;46.14;97992.75;8368029;28;20204;-65
2021/04/19 14:52:08;;;;;;;16.53;14.93;;;;;;;16.07;46.59;97995.13;8334165;28;20616;-63
2021/04/19 14:56:10;;;;;;;16.90;15.00;;;;;;;15.81;50.82;97994.22;8333250;28;20201;-64
2021/04/19 15:00:13;;;;;;;16.77;15.07;;;;;;;15.39;51.19;97996.84;8333135;28;20203;-65
2021/04/19 15:04:15;;;;;;;16.07;14.37;;;;;;;15.13;51.88;97990.66;8333178;28;20203;-65
2021/04/19 15:08:17;;;;;;;15.40;13.80;;;;;;;15.29;50.83;97987.94;8332697;28;20200;-64
2021/04/19 15:12:20;;;;;;;18.83;16.93;;;;;;;15.24;50.45;97980.38;8332606;28;20220;-73
2021/04/19 15:16:23;;;;;;;16.23;14.33;;;;;;;15.23;51.10;97986.56;8332994;28;20220;-65
2021/04/19 15:20:25;;;;;;;16.03;14.43;;;;;;;15.16;51.08;97984.44;8332987;28;20204;-64
2021/04/19 15:24:27;;;;;;;15.60;14.07;;;;;;;15.13;51.52;97984.63;8335950;28;20275;-67
2021/04/19 15:28:30;;;;;;;20.13;15.20;;;;;;;15.11;52.35;97984.69;8333512;28;20239;-65
2021/04/19 15:32:32;;;;;;;15.53;13.83;;;;;;;14.66;53.24;97990.06;8343221;28;20223;-65
2021/04/19 15:36:34;;;;;;;13.47;11.80;;;;;;;14.78;51.26;97995.47;8363478;28;20200;-65
2021/04/19 15:40:36;;;;;;;19.97;7.60;;;;;;;15.63;55.82;98017.94;8364773;28;20234;-68
2021/04/19 15:44:39;;;;;;;13.50;8.27;;;;;;;15.20;50.81;98014.59;8337311;28;20208;-68
2021/04/19 15:48:41;;;;;;;10.60;8.20;;;;;;;13.93;51.24;98029.03;8332888;28;20200;-65
2021/04/19 15:52:45;;;;;;;9.43;8.10;;;;;;;13.77;52.13;98018.66;8370859;28;20221;-65
2021/04/19 15:56:47;;;;;;;11.63;8.53;;;;;;;13.73;53.96;98029.31;8351028;28;20319;-65
2021/04/19 16:00:51;;;;;;;10.40;8.27;;;;;;;13.70;55.47;98030.34;8332437;28;20205;-65
2021/04/19 16:04:53;;;;;;;10.10;8.47;;;;;;;13.73;53.31;98026.72;8331596;28;20281;-65
2021/04/19 16:08:55;;;;;;;13.30;9.73;;;;;;;13.66;55.34;98023.63;8359208;28;20192;-65
2021/04/19 16:12:57;;;;;;;10.53;9.40;;;;;;;13.55;55.18;98024.22;8360719;28;20219;-66
2021/04/19 16:17:00;;;;;;;11.50;10.30;;;;;;;13.44;55.55;98010.97;8361208;28;20622;-63
2021/04/19 16:21:02;;;;;;;17.23;15.43;;;;;;;13.37;55.87;98018.28;8362309;28;20276;-66
2021/04/19 16:25:04;;;;;;;9.33;8.33;;;;;;;13.29;54.80;98020.44;8334956;28;20204;-65
2021/04/19 16:29:07;;;;;;;9.80;8.90;;;;;;;13.28;54.99;98009.19;8329198;28;20267;-65
2021/04/19 16:33:10;;;;;;;10.37;9.27;;;;;;;13.29;55.46;98010.03;8345875;28;20345;-66
2021/04/19 16:37:12;;;;;;;9.10;8.20;;;;;;;13.16;55.50;98009.03;8362464;28;20196;-65
2021/04/19 16:41:14;;;;;;;9.10;8.23;;;;;;;13.18;56.00;98012.38;8361699;28;20329;-65
2021/04/19 16:45:16;;;;;;;10.03;8.47;;;;;;;13.13;56.32;98010.00;8363413;28;20192;-66
2021/04/19 16:49:19;;;;;;;12.10;10.70;;;;;;;13.09;56.97;98006.75;8368939;28;20203;-65
2021/04/19 16:53:22;;;;;;;10.70;9.60;;;;;;;13.06;57.40;98013.84;8370343;28;20227;-65
2021/04/19 16:57:24;;;;;;;9.90;8.90;;;;;;;12.88;58.97;98011.31;8370417;28;20624;-65
2021/04/19 17:01:26;;;;;;;8.97;8.07;;;;;;;12.93;59.02;98021.50;8403130;28;20202;-64
2021/04/19 17:05:29;;;;;;;9.63;8.73;;;;;;;12.80;58.51;98020.47;8402819;28;20657;-64
2021/04/19 17:09:31;;;;;;;11.07;9.97;;;;;;;12.83;59.49;98018.53;8402729;28;20217;-64
2021/04/19 17:13:33;;;;;;;11.63;10.43;;;;;;;12.67;60.32;98009.88;8402130;28;20627;-65
2021/04/19 17:17:35;;;;;;;10.73;9.63;;;;;;;12.61;60.35;98015.38;8401842;28;20222;-65
2021/04/19 17:21:38;;;;;;;9.10;8.20;;;;;;;12.66;59.82;98008.16;8401839;28;20199;-65
2021/04/19 17:25:44;;;;;;;10.50;9.40;;;;;;;12.61;60.42;98016.22;8364060;28;20219;-65
2021/04/19 17:29:46;;;;;;;11.43;8.77;;;;;;;12.65;60.25;98009.09;8368504;28;20235;-65
2021/04/19 17:33:48;;;;;;;9.80;8.80;;;;;;;12.65;59.84;98012.53;8340466;28;20226;-65
2021/04/19 17:37:51;;;;;;;10.83;9.20;;;;;;;12.58;60.03;98012.94;8350469;28;20296;-65
2021/04/19 17:41:53;;;;;;;12.00;10.60;;;;;;;12.39;60.12;98002.66;8350317;28;20208;-65
2021/04/19 17:45:55;;;;;;;9.77;8.87;;;;;;;12.41;60.12;98014.63;8349835;28;20195;-65
2021/04/19 17:49:57;;;;;;;9.50;8.60;;;;;;;12.31;60.82;98009.06;8349807;28;20185;-65
2021/04/19 17:54:00;;;;;;;9.43;8.37;;;;;;;12.40;59.84;98006.94;8336202;28;20224;-65
2021/04/19 17:58:05;;;;;;;8.90;8.00;;;;;;;12.45;60.06;98012.72;8348909;28;20195;-66
2021/04/19 18:02:07;;;;;;;8.63;7.17;;;;;;;12.40;60.08;98009.53;8366271;28;20215;-65
2021/04/19 18:06:09;;;;;;;9.43;7.23;;;;;;;12.32;60.67;98026.34;8367226;28;20704;-64
2021/04/19 18:10:14;;;;;;;8.87;7.97;;;;;;;12.30;60.62;98019.56;8366802;28;20195;-64
2021/04/19 18:14:32;;;;;;;8.60;7.80;;;;;;;12.03;61.06;98022.63;8366569;28;20695;-65
2021/04/19 18:18:34;;;;;;;9.33;8.43;;;;;;;12.09;60.67;98021.47;8367154;28;20255;-64
2021/04/19 18:22:44;;;;;;;8.87;7.97;;;;;;;12.16;60.85;98029.78;8366876;28;20623;-65
2021/04/19 18:26:47;;;;;;;10.83;4.93;;;;;;;13.41;63.13;98032.81;8366028;28;20231;-67
2021/04/19 18:30:50;;;;;;;7.87;6.13;;;;;;;13.78;58.48;98035.13;8365984;28;20246;-67
2021/04/19 18:34:51;;;;;;;11.27;5.80;;;;;;;13.93;56.98;98036.03;8335493;28;20211;-66
2021/04/19 18:38:53;;;;;;;9.30;8.07;;;;;;;13.77;56.16;98042.09;8333684;28;20573;-65
2021/04/19 18:43:01;;;;;;;9.00;8.10;;;;;;;13.46;57.09;98045.53;8339367;28;20200;-64